createdAt,value
2019-02-20T00:00:37.772Z,44.00
2019-02-20T00:03:05.481Z,43.90
2019-02-20T00:05:32.949Z,43.90
2019-02-20T00:08:00.405Z,43.90
2019-02-20T00:10:27.877Z,44.00
2019-02-20T00:12:55.482Z,43.90
2019-02-20T00:15:22.964Z,43.90
2019-02-20T00:17:50.702Z,44.00
2019-02-20T00:20:18.164Z,43.90
2019-02-20T00:22:45.624Z,43.90
2019-02-20T00:25:13.088Z,43.80
2019-02-20T00:27:40.549Z,43.80
2019-02-20T00:30:09.019Z,44.00
2019-02-20T00:32:36.482Z,43.80
2019-02-20T00:35:04.820Z,43.90
2019-02-20T00:37:32.280Z,43.80
2019-02-20T00:39:59.747Z,43.80
2019-02-20T00:42:27.216Z,43.80
2019-02-20T00:44:56.318Z,43.70
2019-02-20T00:47:37.382Z,43.80
2019-02-20T00:50:05.316Z,43.80
2019-02-20T00:52:34.420Z,43.70
2019-02-20T00:55:01.930Z,43.80
2019-02-20T00:57:29.397Z,43.60
2019-02-20T00:59:56.869Z,43.60
2019-02-20T01:02:24.414Z,43.50
2019-02-20T01:04:51.868Z,43.50
2019-02-20T01:07:19.336Z,43.50
2019-02-20T01:09:46.802Z,43.50
2019-02-20T01:12:14.270Z,43.50
2019-02-20T01:14:41.739Z,43.60
2019-02-20T01:17:09.213Z,43.70
2019-02-20T01:19:36.678Z,43.70
2019-02-20T01:22:04.174Z,43.60
2019-02-20T01:24:31.632Z,43.60
2019-02-20T01:26:59.131Z,43.70
2019-02-20T01:29:26.613Z,43.70
2019-02-20T01:31:54.124Z,43.80
2019-02-20T01:34:21.593Z,43.80
2019-02-20T01:36:49.216Z,43.80
2019-02-20T01:39:16.692Z,43.80
2019-02-20T01:41:44.165Z,43.70
2019-02-20T01:44:11.625Z,43.70
2019-02-20T01:46:39.085Z,44.00
2019-02-20T01:49:06.566Z,43.70
2019-02-20T01:51:34.035Z,43.70
2019-02-20T01:54:01.500Z,43.70
2019-02-20T01:56:28.964Z,43.80
2019-02-20T01:58:56.448Z,43.70
2019-02-20T02:01:23.918Z,43.60
2019-02-20T02:03:51.393Z,43.50
2019-02-20T02:06:18.936Z,43.50
2019-02-20T02:08:46.411Z,43.50
2019-02-20T02:11:13.879Z,43.40
2019-02-20T02:13:41.356Z,43.50
2019-02-20T02:16:08.813Z,43.40
2019-02-20T02:18:36.294Z,43.40
2019-02-20T02:21:03.752Z,43.40
2019-02-20T02:23:31.224Z,43.50
2019-02-20T02:25:58.705Z,43.50
2019-02-20T02:28:26.228Z,43.50
2019-02-20T02:30:53.695Z,43.50
2019-02-20T02:33:21.158Z,43.50
2019-02-20T02:35:48.627Z,43.50
2019-02-20T02:38:16.082Z,43.50
2019-02-20T02:40:43.558Z,43.50
2019-02-20T02:43:11.008Z,43.50
2019-02-20T02:45:38.482Z,43.50
2019-02-20T02:48:05.968Z,43.50
2019-02-20T02:50:33.442Z,43.60
2019-02-20T02:53:00.913Z,43.50
2019-02-20T02:55:28.374Z,43.50
2019-02-20T02:57:55.832Z,43.50
2019-02-20T03:00:23.320Z,43.50
2019-02-20T03:02:50.765Z,43.40
2019-02-20T03:05:18.238Z,43.40
2019-02-20T03:07:45.702Z,43.30
2019-02-20T03:10:13.273Z,43.30
2019-02-20T03:12:40.797Z,43.30
2019-02-20T03:15:08.735Z,43.20
2019-02-20T03:17:36.197Z,43.20
2019-02-20T03:20:04.427Z,43.20
2019-02-20T03:22:31.898Z,43.20
2019-02-20T03:24:59.368Z,43.30
2019-02-20T03:27:26.831Z,43.40
2019-02-20T03:29:54.296Z,43.40
2019-02-20T03:32:21.878Z,43.30
2019-02-20T03:34:49.325Z,43.40
2019-02-20T03:37:16.796Z,43.30
2019-02-20T03:39:44.302Z,43.40
2019-02-20T03:42:11.797Z,43.50
2019-02-20T03:44:39.266Z,43.50
2019-02-20T03:47:06.740Z,43.60
2019-02-20T03:49:34.203Z,43.60
2019-02-20T03:52:01.681Z,43.50
2019-02-20T03:54:29.148Z,43.50
2019-02-20T03:56:56.620Z,43.50
2019-02-20T03:59:24.087Z,44.00
2019-02-20T04:01:51.575Z,43.60
2019-02-20T04:04:19.096Z,43.50
2019-02-20T04:06:46.568Z,43.50
2019-02-20T04:09:14.127Z,43.50
2019-02-20T04:11:41.586Z,43.40
2019-02-20T04:14:09.047Z,43.50
2019-02-20T04:16:36.516Z,43.40
2019-02-20T04:19:03.981Z,43.40
2019-02-20T04:21:31.451Z,43.50
2019-02-20T04:24:02.303Z,44.00
2019-02-20T04:26:28.105Z,43.30
2019-02-20T04:28:55.572Z,43.30
2019-02-20T04:31:23.039Z,43.20
2019-02-20T04:33:50.506Z,43.20
2019-02-20T04:36:18.007Z,43.30
2019-02-20T04:38:45.478Z,43.40
2019-02-20T04:41:12.955Z,43.30
2019-02-20T04:43:40.415Z,43.40
2019-02-20T04:46:07.876Z,43.40
2019-02-20T04:48:35.393Z,43.40
2019-02-20T04:51:02.892Z,43.40
2019-02-20T04:53:30.350Z,43.40
2019-02-20T04:55:57.817Z,43.40
2019-02-20T04:58:25.278Z,43.40
2019-02-20T05:00:53.138Z,43.50
2019-02-20T05:03:23.033Z,43.40
2019-02-20T05:05:49.962Z,43.40
2019-02-20T05:08:17.706Z,43.30
2019-02-20T05:10:45.166Z,43.20
2019-02-20T05:13:12.647Z,43.30
2019-02-20T05:15:40.107Z,43.30
2019-02-20T05:18:07.657Z,43.30
2019-02-20T05:20:35.129Z,43.30
2019-02-20T05:23:02.933Z,43.20
2019-02-20T05:25:30.402Z,43.10
2019-02-20T05:27:57.871Z,43.10
2019-02-20T05:30:25.338Z,43.70
2019-02-20T05:32:52.821Z,43.10
2019-02-20T05:35:20.277Z,43.10
2019-02-20T05:37:47.741Z,42.90
2019-02-20T05:40:15.226Z,42.80
2019-02-20T05:42:42.681Z,42.80
2019-02-20T05:45:10.164Z,42.90
2019-02-20T05:47:37.787Z,43.10
2019-02-20T05:50:06.131Z,43.10
2019-02-20T05:52:33.589Z,43.10
2019-02-20T05:55:01.078Z,43.10
2019-02-20T05:57:28.810Z,43.10
2019-02-20T05:59:56.282Z,43.10
2019-02-20T06:02:23.844Z,43.40
2019-02-20T06:04:51.427Z,43.30
2019-02-20T06:07:18.890Z,43.40
2019-02-20T06:09:46.356Z,43.50
2019-02-20T06:12:13.821Z,43.50
2019-02-20T06:14:41.322Z,43.40
2019-02-20T06:17:08.787Z,43.40
2019-02-20T06:19:36.359Z,43.40
2019-02-20T06:22:03.817Z,43.40
2019-02-20T06:24:31.278Z,43.40
2019-02-20T06:26:58.771Z,43.30
2019-02-20T06:29:26.306Z,43.20
2019-02-20T06:31:53.790Z,43.20
2019-02-20T06:34:21.314Z,43.10
2019-02-20T06:36:48.782Z,43.10
2019-02-20T06:39:16.257Z,43.00
2019-02-20T06:41:43.810Z,43.10
2019-02-20T06:44:11.274Z,43.10
2019-02-20T06:46:38.743Z,43.10
2019-02-20T06:49:06.206Z,43.10
2019-02-20T06:51:33.690Z,43.10
2019-02-20T06:54:01.462Z,42.90
2019-02-20T06:56:28.949Z,43.00
2019-02-20T06:58:56.407Z,43.00
2019-02-20T07:01:23.873Z,42.90
2019-02-20T07:03:51.338Z,43.10
2019-02-20T07:06:23.507Z,42.90
2019-02-20T07:09:09.204Z,43.10
2019-02-20T07:11:44.528Z,43.00
2019-02-20T07:14:13.779Z,43.00
2019-02-20T07:16:59.825Z,42.80
2019-02-20T07:19:32.180Z,43.10
2019-02-20T07:22:10.408Z,43.10
2019-02-20T07:24:45.692Z,43.10
2019-02-20T07:27:17.526Z,43.70
2019-02-20T07:29:46.622Z,43.10
2019-02-20T07:32:14.757Z,43.10
2019-02-20T07:34:42.213Z,43.10
2019-02-20T07:37:09.685Z,43.10
2019-02-20T07:39:37.165Z,43.10
2019-02-20T07:42:05.021Z,43.00
2019-02-20T07:44:32.478Z,43.10
2019-02-20T07:46:59.940Z,43.00
2019-02-20T07:49:27.427Z,43.00
2019-02-20T07:51:54.908Z,43.00
2019-02-20T07:54:22.365Z,43.00
2019-02-20T07:56:49.838Z,43.20
2019-02-20T07:59:17.296Z,43.20
2019-02-20T08:01:44.768Z,43.10
2019-02-20T08:04:12.238Z,43.10
2019-02-20T08:06:39.697Z,43.10
2019-02-20T08:09:07.176Z,43.10
2019-02-20T08:11:34.629Z,43.10
2019-02-20T08:14:02.098Z,43.10
2019-02-20T08:16:29.565Z,43.10
2019-02-20T08:18:57.024Z,43.10
2019-02-20T08:21:24.519Z,43.10
2019-02-20T08:23:52.042Z,43.20
2019-02-20T08:26:19.507Z,43.10
2019-02-20T08:28:46.976Z,43.20
2019-02-20T08:31:14.439Z,43.80
2019-02-20T08:33:41.905Z,43.20
2019-02-20T08:36:09.386Z,43.20
2019-02-20T08:38:36.842Z,43.10
2019-02-20T08:41:04.330Z,43.10
2019-02-20T08:43:31.788Z,43.10
2019-02-20T08:45:59.309Z,43.00
2019-02-20T08:48:26.776Z,42.90
2019-02-20T08:50:54.251Z,43.10
2019-02-20T08:53:21.725Z,43.10
2019-02-20T08:55:49.189Z,43.10
2019-02-20T08:58:16.677Z,43.10
2019-02-20T09:00:44.143Z,43.00
2019-02-20T09:03:11.601Z,43.50
2019-02-20T09:05:39.070Z,43.50
2019-02-20T09:08:06.539Z,43.50
2019-02-20T09:10:34.105Z,43.40
2019-02-20T09:13:01.586Z,43.30
2019-02-20T09:15:29.045Z,43.30
2019-02-20T09:17:56.522Z,43.20
2019-02-20T09:20:24.083Z,43.20
2019-02-20T09:22:51.636Z,43.30
2019-02-20T09:25:20.148Z,43.20
2019-02-20T09:27:47.749Z,43.20
2019-02-20T09:30:15.392Z,43.20
2019-02-20T09:32:42.859Z,43.30
2019-02-20T09:35:10.337Z,43.30
2019-02-20T09:37:37.906Z,43.30
2019-02-20T09:40:07.063Z,43.20
2019-02-20T09:42:35.293Z,43.20
2019-02-20T09:45:02.772Z,43.20
2019-02-20T09:47:30.265Z,43.20
2019-02-20T09:49:57.728Z,43.20
2019-02-20T09:52:25.203Z,43.20
2019-02-20T09:54:52.667Z,43.20
2019-02-20T09:57:20.310Z,43.20
2019-02-20T09:59:47.874Z,43.20
2019-02-20T10:02:15.451Z,43.30
2019-02-20T10:04:42.983Z,43.50
2019-02-20T10:07:10.597Z,43.30
2019-02-20T10:09:38.034Z,43.40
2019-02-20T10:12:05.501Z,43.40
2019-02-20T10:14:32.967Z,43.40
2019-02-20T10:17:00.487Z,43.40
2019-02-20T10:19:28.024Z,43.40
2019-02-20T10:21:55.485Z,43.40
2019-02-20T10:24:22.949Z,43.40
2019-02-20T10:26:50.485Z,43.50
2019-02-20T10:29:17.941Z,43.40
2019-02-20T10:31:45.413Z,43.40
2019-02-20T10:34:12.868Z,43.30
2019-02-20T10:36:40.345Z,43.40
2019-02-20T10:39:07.896Z,43.40
2019-02-20T10:41:35.373Z,43.50
2019-02-20T10:44:02.845Z,43.50
2019-02-20T10:46:30.309Z,43.50
2019-02-20T10:48:57.777Z,43.50
2019-02-20T10:51:25.255Z,43.50
2019-02-20T10:53:52.740Z,43.50
2019-02-20T10:56:20.210Z,43.70
2019-02-20T10:58:47.686Z,43.50
2019-02-20T11:01:15.149Z,43.50
2019-02-20T11:03:42.617Z,43.40
2019-02-20T11:06:10.081Z,43.40
2019-02-20T11:08:37.547Z,43.30
2019-02-20T11:11:05.021Z,43.30
2019-02-20T11:13:32.484Z,43.20
2019-02-20T11:15:59.949Z,43.20
2019-02-20T11:18:27.423Z,43.30
2019-02-20T11:20:54.880Z,43.20
2019-02-20T11:23:22.382Z,43.10
2019-02-20T11:25:50.188Z,43.30
2019-02-20T11:28:17.656Z,43.50
2019-02-20T11:30:45.122Z,43.50
2019-02-20T11:33:12.586Z,43.40
2019-02-20T11:35:40.044Z,43.40
2019-02-20T11:38:07.525Z,43.50
2019-02-20T11:40:34.988Z,43.50
2019-02-20T11:43:02.478Z,43.40
2019-02-20T11:45:29.941Z,43.50
2019-02-20T11:47:57.418Z,43.60
2019-02-20T11:50:24.881Z,43.70
2019-02-20T11:52:52.346Z,43.50
2019-02-20T11:55:19.804Z,43.50
2019-02-20T11:57:47.299Z,43.50
2019-02-20T12:00:17.945Z,43.60
2019-02-20T12:02:45.415Z,43.50
2019-02-20T12:05:12.883Z,43.50
2019-02-20T12:07:40.361Z,43.50
2019-02-20T12:10:12.935Z,43.60
2019-02-20T12:12:40.473Z,43.50
2019-02-20T12:15:08.207Z,43.60
2019-02-20T12:17:35.675Z,43.70
2019-02-20T12:20:03.915Z,43.70
2019-02-20T12:22:31.650Z,43.60
2019-02-20T12:24:59.386Z,43.60
2019-02-20T12:27:26.952Z,43.60
2019-02-20T12:29:54.469Z,43.60
2019-02-20T12:32:21.937Z,43.60
2019-02-20T12:34:49.404Z,43.60
2019-02-20T12:37:16.865Z,43.50
2019-02-20T12:39:44.355Z,43.70
2019-02-20T12:42:13.045Z,43.70
2019-02-20T12:44:40.567Z,43.80
2019-02-20T12:47:08.029Z,43.80
2019-02-20T12:49:35.506Z,43.80
2019-02-20T12:52:02.975Z,43.80
2019-02-20T12:54:30.477Z,43.70
2019-02-20T12:56:57.946Z,43.80
2019-02-20T12:59:25.421Z,43.80
2019-02-20T13:01:52.886Z,43.70
2019-02-20T13:04:20.414Z,43.70
2019-02-20T13:06:47.884Z,43.70
2019-02-20T13:09:16.986Z,43.70
2019-02-20T13:11:44.448Z,43.70
2019-02-20T13:14:11.914Z,43.80
2019-02-20T13:16:39.373Z,43.70
2019-02-20T13:19:06.838Z,43.60
2019-02-20T13:21:34.306Z,43.50
2019-02-20T13:24:01.765Z,43.60
2019-02-20T13:26:29.234Z,43.50
2019-02-20T13:28:56.835Z,43.70
2019-02-20T13:31:24.489Z,43.50
2019-02-20T13:33:51.958Z,43.40
2019-02-20T13:36:19.420Z,43.40
2019-02-20T13:38:47.139Z,43.50
2019-02-20T13:41:14.623Z,43.50
2019-02-20T13:43:42.082Z,43.60
2019-02-20T13:46:09.546Z,43.50
2019-02-20T13:48:37.009Z,43.50
2019-02-20T13:51:04.559Z,43.70
2019-02-20T13:53:33.642Z,43.70
2019-02-20T13:56:01.276Z,43.70
2019-02-20T13:58:29.010Z,43.70
2019-02-20T14:00:56.554Z,43.60
2019-02-20T14:03:24.117Z,43.50
2019-02-20T14:05:51.593Z,43.60
2019-02-20T14:08:19.075Z,43.60
2019-02-20T14:10:46.609Z,43.60
2019-02-20T14:13:14.068Z,43.70
2019-02-20T14:15:41.909Z,43.70
2019-02-20T14:18:09.380Z,43.80
2019-02-20T14:20:36.922Z,43.80
2019-02-20T14:23:04.391Z,43.80
2019-02-20T14:25:32.038Z,44.50
2019-02-20T14:27:59.513Z,43.70
2019-02-20T14:30:26.970Z,43.70
2019-02-20T14:32:54.441Z,43.50
2019-02-20T14:35:22.190Z,43.40
2019-02-20T14:37:49.826Z,43.40
2019-02-20T14:40:17.289Z,43.30
2019-02-20T14:42:44.760Z,43.30
2019-02-20T14:45:12.790Z,43.50
2019-02-20T14:47:40.268Z,43.60
2019-02-20T14:50:08.975Z,43.10
2019-02-20T14:52:36.638Z,43.60
2019-02-20T14:55:05.164Z,43.60
2019-02-20T14:57:32.684Z,43.60
2019-02-20T15:00:00.224Z,43.50
2019-02-20T15:02:27.704Z,43.60
2019-02-20T15:04:55.157Z,43.60
2019-02-20T15:07:22.630Z,43.60
2019-02-20T15:09:50.173Z,43.60
2019-02-20T15:12:17.669Z,43.60
2019-02-20T15:14:45.128Z,43.60
2019-02-20T15:17:12.588Z,43.60
2019-02-20T15:19:40.053Z,43.80
2019-02-20T15:22:07.521Z,43.80
2019-02-20T15:24:34.980Z,43.70
2019-02-20T15:27:02.443Z,43.70
2019-02-20T15:29:30.268Z,43.70
2019-02-20T15:31:57.733Z,43.70
2019-02-20T15:34:25.233Z,43.80
2019-02-20T15:36:52.762Z,43.80
2019-02-20T15:39:20.240Z,43.80
2019-02-20T15:41:47.704Z,43.80
2019-02-20T15:44:15.168Z,43.90
2019-02-20T15:46:43.061Z,43.90
2019-02-20T15:49:10.541Z,43.90
2019-02-20T15:51:38.007Z,43.90
2019-02-20T15:54:05.494Z,43.90
2019-02-20T15:56:32.953Z,43.80
2019-02-20T15:59:01.241Z,43.80
2019-02-20T16:01:28.881Z,43.80
2019-02-20T16:03:56.404Z,43.80
2019-02-20T16:06:24.158Z,43.80
2019-02-20T16:08:51.662Z,43.70
2019-02-20T16:11:19.134Z,43.70
2019-02-20T16:13:46.601Z,43.60
2019-02-20T16:16:14.329Z,43.50
2019-02-20T16:18:41.898Z,43.70
2019-02-20T16:21:09.362Z,43.80
2019-02-20T16:23:36.821Z,43.70
2019-02-20T16:26:04.290Z,43.80
2019-02-20T16:28:33.782Z,44.00
2019-02-20T16:31:00.943Z,44.00
2019-02-20T16:33:28.423Z,44.10
2019-02-20T16:35:55.964Z,44.10
2019-02-20T16:38:23.424Z,44.10
2019-02-20T16:40:50.885Z,44.10
2019-02-20T16:43:18.624Z,44.10
2019-02-20T16:45:46.098Z,44.20
2019-02-20T16:48:13.570Z,44.20
2019-02-20T16:50:41.062Z,44.10
2019-02-20T16:53:08.905Z,44.10
2019-02-20T16:55:36.406Z,44.00
2019-02-20T16:58:47.233Z,44.30
2019-02-20T17:01:14.738Z,44.90
2019-02-20T17:03:42.209Z,44.60
2019-02-20T17:06:09.687Z,44.60
2019-02-20T17:08:37.531Z,44.50
2019-02-20T17:11:05.010Z,44.60
2019-02-20T17:13:32.474Z,44.50
2019-02-20T17:15:59.941Z,44.70
2019-02-20T17:18:27.405Z,44.60
2019-02-20T17:20:54.886Z,44.70
2019-02-20T17:23:22.349Z,44.50
2019-02-20T17:25:50.110Z,44.40
2019-02-20T17:28:17.580Z,44.50
2019-02-20T17:30:45.116Z,44.50
2019-02-20T17:33:12.622Z,44.40
2019-02-20T17:35:40.084Z,44.50
2019-02-20T17:38:07.895Z,44.60
2019-02-20T17:40:35.369Z,44.40
2019-02-20T17:43:02.849Z,44.40
2019-02-20T17:45:30.322Z,44.20
2019-02-20T17:47:57.861Z,44.30
2019-02-20T17:50:26.301Z,44.30
2019-02-20T17:52:53.760Z,44.20
2019-02-20T17:55:21.226Z,44.30
2019-02-20T17:57:48.724Z,44.20
2019-02-20T18:00:17.425Z,44.40
2019-02-20T18:02:44.908Z,44.40
2019-02-20T18:05:13.730Z,44.40
2019-02-20T18:07:48.644Z,44.50
2019-02-20T18:10:10.992Z,44.40
2019-02-20T18:12:38.757Z,44.50
2019-02-20T18:15:07.181Z,44.30
2019-02-20T18:17:34.730Z,44.40
2019-02-20T18:20:02.267Z,44.20
2019-02-20T18:22:30.522Z,44.50
2019-02-20T18:24:57.982Z,44.50
2019-02-20T18:27:25.479Z,44.60
2019-02-20T18:29:52.945Z,44.50
2019-02-20T18:32:20.421Z,44.90
2019-02-20T18:34:47.886Z,45.10
2019-02-20T18:37:15.409Z,45.10
2019-02-20T18:39:42.875Z,45.30
2019-02-20T18:42:10.416Z,45.40
2019-02-20T18:44:37.887Z,45.60
2019-02-20T18:47:07.515Z,45.60
2019-02-20T18:49:34.577Z,45.40
2019-02-20T18:52:02.095Z,45.30
2019-02-20T18:54:29.560Z,45.30
2019-02-20T18:56:57.024Z,45.10
2019-02-20T18:59:24.574Z,45.10
2019-02-20T19:01:52.037Z,45.00
2019-02-20T19:04:19.510Z,45.10
2019-02-20T19:06:47.048Z,45.00
2019-02-20T19:09:16.301Z,45.40
2019-02-20T19:11:45.469Z,45.90
2019-02-20T19:14:20.266Z,45.60
2019-02-20T19:16:58.377Z,45.60
2019-02-20T19:19:33.498Z,45.60
2019-02-20T19:22:08.253Z,45.40
2019-02-20T19:24:37.358Z,45.40
2019-02-20T19:27:09.307Z,45.30
2019-02-20T19:29:56.837Z,45.30
2019-02-20T19:32:31.868Z,45.30
2019-02-20T19:35:06.800Z,45.30
2019-02-20T19:37:45.116Z,45.10
2019-02-20T19:40:23.044Z,45.30
2019-02-20T19:42:57.923Z,45.60
2019-02-20T19:45:33.110Z,45.70
2019-02-20T19:48:04.944Z,45.60
2019-02-20T19:50:36.794Z,45.60
2019-02-20T19:53:22.698Z,45.70
2019-02-20T19:55:57.752Z,45.60
2019-02-20T19:58:29.813Z,45.70
2019-02-20T20:01:02.017Z,45.70
2019-02-20T20:03:37.013Z,45.70
2019-02-20T20:06:18.332Z,45.70
2019-02-20T20:08:47.447Z,46.00
2019-02-20T20:11:19.508Z,46.10
2019-02-20T22:00:56.893Z,46.10
2019-02-20T22:03:25.986Z,46.00
2019-02-20T22:05:55.090Z,45.90
2019-02-20T22:08:39.206Z,45.80
2019-02-20T22:11:14.583Z,45.80
2019-02-20T22:14:00.460Z,45.80
2019-02-20T22:16:38.586Z,45.60
2019-02-20T22:19:16.912Z,45.70
2019-02-20T22:21:51.775Z,45.60
2019-02-20T22:24:29.840Z,45.70
2019-02-20T22:26:58.997Z,45.60
2019-02-20T22:29:33.957Z,45.70
2019-02-20T22:32:18.116Z,45.70
2019-02-20T22:34:50.002Z,45.60
2019-02-20T22:37:27.994Z,45.60
2019-02-20T22:40:00.307Z,45.60
2019-02-20T22:42:29.585Z,45.60
2019-02-20T22:44:58.761Z,45.80
2019-02-20T22:47:30.894Z,45.60
2019-02-20T22:50:09.151Z,45.60
2019-02-20T22:52:54.776Z,45.60
2019-02-20T22:55:26.726Z,45.60
2019-02-20T22:57:55.876Z,45.60
2019-02-20T23:00:51.269Z,45.60
2019-02-20T23:03:20.433Z,45.60
2019-02-20T23:06:01.872Z,45.70
2019-02-20T23:08:31.037Z,45.60
2019-02-20T23:11:12.559Z,45.60
2019-02-20T23:13:41.732Z,45.60
2019-02-20T23:16:09.350Z,45.60
2019-02-20T23:18:36.912Z,45.60
2019-02-20T23:21:04.441Z,45.60
2019-02-20T23:23:31.957Z,45.60
2019-02-20T23:25:59.486Z,45.60
2019-02-20T23:28:27.032Z,46.20
2019-02-20T23:30:54.547Z,45.60
2019-02-20T23:33:22.183Z,45.60
2019-02-20T23:35:49.690Z,45.60
2019-02-20T23:38:17.226Z,45.60
2019-02-20T23:40:44.750Z,45.60
2019-02-20T23:43:12.293Z,45.10
2019-02-20T23:45:39.892Z,45.60
2019-02-20T23:48:07.414Z,45.60
2019-02-20T23:50:34.940Z,45.60
2019-02-20T23:53:02.561Z,45.60
2019-02-20T23:55:30.083Z,45.60
2019-02-20T23:57:57.635Z,45.60
